Time;durP1;ratioP1;P1;durP2;ratioP2;P2;SDS_P1;SDS_P2;PMS_P1;PMS_P2;Temp;Humidity;BMP_temperature;BMP_pressure;BME280_temperature;BME280_humidity;BME280_pressure;Samples;Min_cycle;Max_cycle;Signal;HPM_P1;HPM_P2
2023/12/27 00:02:26;;;;;;;6.73;2.10;;;;;;;;;;5052288;28;20192;-51
2023/12/27 00:04:52;;;;;;;7.37;2.33;;;;;;;;;;5052247;28;20439;-51
2023/12/27 00:07:18;;;;;;;4.70;1.80;;;;;;;;;;5052193;28;20266;-51
2023/12/27 00:09:44;;;;;;;7.27;2.00;;;;;;;;;;5052016;28;20192;-51
2023/12/27 00:12:10;;;;;;;8.70;2.00;;;;;;;;;;5052049;28;20574;-51
2023/12/27 00:14:36;;;;;;;7.00;2.20;;;;;;;;;;5052094;28;20675;-51
2023/12/27 00:17:02;;;;;;;6.23;2.10;;;;;;;;;;5052197;28;20457;-51
2023/12/27 00:19:30;;;;;;;9.70;2.00;;;;;;;;;;5052399;28;20254;-51
2023/12/27 00:21:56;;;;;;;3.23;1.67;;;;;;;;;;5051853;28;20200;-51
2023/12/27 00:24:22;;;;;;;5.93;2.40;;;;;;;;;;5052047;28;20709;-51
2023/12/27 00:26:48;;;;;;;6.70;1.80;;;;;;;;;;5051337;28;20262;-51
2023/12/27 00:29:14;;;;;;;5.33;1.70;;;;;;;;;;5052218;28;20200;-51
2023/12/27 00:31:39;;;;;;;11.30;2.53;;;;;;;;;;5051718;28;20223;-51
2023/12/27 00:34:06;;;;;;;6.50;2.00;;;;;;;;;;5051880;28;20196;-51
2023/12/27 00:36:33;;;;;;;9.53;2.10;;;;;;;;;;5051865;28;20243;-51
2023/12/27 00:39:01;;;;;;;7.60;2.30;;;;;;;;;;5051933;28;20514;-51
2023/12/27 00:41:27;;;;;;;7.30;2.17;;;;;;;;;;5051943;28;20443;-51
2023/12/27 00:43:53;;;;;;;5.93;2.00;;;;;;;;;;5051704;28;21197;-51
2023/12/27 00:46:19;;;;;;;7.73;2.30;;;;;;;;;;5051314;28;20267;-51
2023/12/27 00:48:45;;;;;;;5.67;2.63;;;;;;;;;;5051772;28;20200;-51
2023/12/27 00:51:18;;;;;;;9.37;4.07;;;;;;;;;;5051762;28;20235;-51
2023/12/27 00:53:45;;;;;;;5.73;2.40;;;;;;;;;;5051733;28;20212;-51
2023/12/27 00:56:11;;;;;;;7.27;2.37;;;;;;;;;;5052036;28;20442;-51
2023/12/27 00:58:37;;;;;;;5.03;1.77;;;;;;;;;;5049387;28;21131;-49
2023/12/27 01:01:03;;;;;;;5.90;2.07;;;;;;;;;;5048210;28;20453;-50
2023/12/27 01:03:29;;;;;;;8.53;2.30;;;;;;;;;;5051489;28;20709;-49
2023/12/27 01:05:55;;;;;;;6.47;2.20;;;;;;;;;;5051374;28;21015;-50
2023/12/27 01:08:21;;;;;;;5.47;2.63;;;;;;;;;;5051265;28;20196;-50
2023/12/27 01:10:48;;;;;;;6.73;2.10;;;;;;;;;;5050001;28;20231;-49
2023/12/27 01:13:14;;;;;;;5.17;2.00;;;;;;;;;;5034198;28;20205;-49
2023/12/27 01:15:40;;;;;;;4.47;2.13;;;;;;;;;;5031518;28;20918;-50
2023/12/27 01:18:06;;;;;;;5.80;2.00;;;;;;;;;;5031323;28;20263;-50
2023/12/27 01:20:32;;;;;;;5.37;1.80;;;;;;;;;;5031517;28;20189;-51
2023/12/27 01:22:58;;;;;;;6.73;2.57;;;;;;;;;;5031362;28;20224;-50
2023/12/27 01:25:24;;;;;;;10.97;2.40;;;;;;;;;;5031505;28;20224;-50
2023/12/27 01:27:51;;;;;;;6.33;2.20;;;;;;;;;;5031216;28;20185;-49
2023/12/27 01:30:17;;;;;;;7.37;2.03;;;;;;;;;;5031368;28;20208;-49
2023/12/27 01:32:43;;;;;;;12.10;2.47;;;;;;;;;;5031233;28;20487;-49
2023/12/27 01:35:09;;;;;;;5.53;1.97;;;;;;;;;;5031471;28;20208;-49
2023/12/27 01:37:35;;;;;;;8.47;2.40;;;;;;;;;;5033596;28;20608;-49
2023/12/27 01:40:03;;;;;;;7.17;2.03;;;;;;;;;;5035242;28;20242;-49
2023/12/27 01:42:29;;;;;;;6.47;1.97;;;;;;;;;;5035415;28;20204;-49
2023/12/27 01:44:56;;;;;;;6.23;2.33;;;;;;;;;;5035212;28;20435;-49
2023/12/27 01:47:22;;;;;;;11.17;3.00;;;;;;;;;;5035034;28;20232;-49
2023/12/27 01:49:48;;;;;;;7.63;2.33;;;;;;;;;;5035030;28;20953;-49
2023/12/27 01:52:14;;;;;;;4.83;2.53;;;;;;;;;;5035147;28;20275;-49
2023/12/27 01:54:40;;;;;;;9.73;2.47;;;;;;;;;;5035182;28;20860;-49
2023/12/27 01:57:06;;;;;;;8.90;2.50;;;;;;;;;;5035147;28;20234;-50
2023/12/27 01:59:32;;;;;;;11.33;2.67;;;;;;;;;;5035194;28;20201;-49
2023/12/27 02:01:59;;;;;;;9.63;2.40;;;;;;;;;;5035071;28;20522;-49
2023/12/27 02:04:25;;;;;;;7.80;2.27;;;;;;;;;;5035177;28;20499;-49
2023/12/27 02:06:52;;;;;;;8.23;3.03;;;;;;;;;;5049714;28;20450;-49
2023/12/27 02:09:18;;;;;;;9.20;2.67;;;;;;;;;;5053970;28;20208;-50
2023/12/27 02:11:44;;;;;;;6.07;2.07;;;;;;;;;;5054616;28;20934;-49
2023/12/27 02:14:10;;;;;;;11.90;2.70;;;;;;;;;;5054814;28;20521;-49
2023/12/27 02:16:36;;;;;;;6.27;2.03;;;;;;;;;;5054477;28;20216;-49
2023/12/27 02:19:05;;;;;;;9.70;2.33;;;;;;;;;;5054565;28;20611;-50
2023/12/27 02:21:32;;;;;;;11.87;2.23;;;;;;;;;;5054699;28;20439;-49
2023/12/27 02:24:00;;;;;;;6.33;2.17;;;;;;;;;;5054548;28;20439;-49
2023/12/27 02:26:27;;;;;;;7.03;2.50;;;;;;;;;;5054642;28;20509;-49
2023/12/27 02:28:53;;;;;;;4.77;2.30;;;;;;;;;;5054460;28;20458;-50
2023/12/27 02:31:19;;;;;;;6.23;2.67;;;;;;;;;;5054328;28;21073;-49
2023/12/27 02:33:45;;;;;;;7.33;2.67;;;;;;;;;;5054471;28;20288;-49
2023/12/27 02:36:11;;;;;;;6.90;2.10;;;;;;;;;;5054363;28;20510;-50
2023/12/27 02:38:37;;;;;;;6.77;2.40;;;;;;;;;;5054262;28;20674;-49
2023/12/27 02:41:03;;;;;;;6.83;2.23;;;;;;;;;;5054125;28;20246;-49
2023/12/27 02:43:30;;;;;;;10.07;2.50;;;;;;;;;;5054265;28;20200;-49
2023/12/27 02:45:57;;;;;;;4.77;2.23;;;;;;;;;;5053951;28;20497;-49
2023/12/27 02:48:22;;;;;;;9.37;2.80;;;;;;;;;;5053197;28;20524;-49
2023/12/27 02:50:49;;;;;;;11.50;2.73;;;;;;;;;;5053872;28;20932;-49
2023/12/27 02:53:15;;;;;;;8.83;2.30;;;;;;;;;;5054148;28;20223;-49
2023/12/27 02:55:41;;;;;;;5.77;2.13;;;;;;;;;;5054062;28;20439;-49
2023/12/27 02:58:07;;;;;;;6.40;2.50;;;;;;;;;;5053862;28;20807;-50
2023/12/27 03:00:37;;;;;;;4.10;2.10;;;;;;;;;;5053864;28;20526;-47
2023/12/27 03:03:04;;;;;;;9.77;2.70;;;;;;;;;;5054024;28;20201;-48
2023/12/27 03:05:30;;;;;;;3.73;1.93;;;;;;;;;;5053873;28;20495;-47
2023/12/27 03:07:56;;;;;;;5.43;2.13;;;;;;;;;;5053591;28;20939;-48
2023/12/27 03:10:21;;;;;;;5.83;2.17;;;;;;;;;;5053410;28;20435;-47
2023/12/27 03:12:47;;;;;;;4.70;2.17;;;;;;;;;;5053272;28;20597;-47
2023/12/27 03:15:14;;;;;;;5.43;2.00;;;;;;;;;;5053708;28;20210;-47
2023/12/27 03:17:41;;;;;;;6.97;2.20;;;;;;;;;;5053472;28;20216;-47
2023/12/27 03:20:08;;;;;;;7.80;2.20;;;;;;;;;;5053540;28;20446;-47
2023/12/27 03:22:34;;;;;;;7.50;2.90;;;;;;;;;;5053477;28;20433;-47
2023/12/27 03:25:00;;;;;;;5.10;2.27;;;;;;;;;;5053396;28;21175;-47
2023/12/27 03:27:26;;;;;;;8.93;2.40;;;;;;;;;;5053414;28;20434;-47
2023/12/27 03:29:52;;;;;;;5.83;2.13;;;;;;;;;;5053249;28;20196;-47
2023/12/27 03:32:18;;;;;;;9.80;2.43;;;;;;;;;;5053060;28;20240;-47
2023/12/27 03:34:45;;;;;;;4.50;2.37;;;;;;;;;;5053097;28;20666;-47
2023/12/27 03:37:12;;;;;;;6.27;2.47;;;;;;;;;;5053251;28;20450;-47
2023/12/27 03:39:39;;;;;;;3.70;1.93;;;;;;;;;;5053185;28;20423;-47
2023/12/27 03:42:05;;;;;;;11.13;2.33;;;;;;;;;;5053035;28;20924;-47
2023/12/27 03:44:31;;;;;;;6.27;2.47;;;;;;;;;;5048106;28;20427;-47
2023/12/27 03:46:57;;;;;;;4.57;2.27;;;;;;;;;;5052860;28;20478;-47
2023/12/27 03:49:23;;;;;;;4.47;2.40;;;;;;;;;;5053128;28;20427;-47
2023/12/27 03:51:50;;;;;;;3.80;2.07;;;;;;;;;;5052714;28;20586;-47
2023/12/27 03:54:16;;;;;;;3.73;2.00;;;;;;;;;;5053036;28;20446;-48
2023/12/27 03:56:44;;;;;;;8.33;2.43;;;;;;;;;;5052945;28;20814;-48
2023/12/27 03:59:10;;;;;;;6.33;2.20;;;;;;;;;;5050961;28;20262;-48
2023/12/27 04:01:36;;;;;;;9.63;3.13;;;;;;;;;;5051091;28;20945;-48
2023/12/27 04:04:02;;;;;;;5.60;2.27;;;;;;;;;;5052644;28;20203;-48
2023/12/27 04:06:28;;;;;;;8.00;2.10;;;;;;;;;;5052719;28;20521;-48
2023/12/27 04:08:56;;;;;;;5.97;1.97;;;;;;;;;;5052488;28;20446;-48
2023/12/27 04:11:22;;;;;;;6.53;2.30;;;;;;;;;;5052479;28;20682;-48
2023/12/27 04:13:48;;;;;;;7.00;1.97;;;;;;;;;;5050657;28;20462;-48
2023/12/27 04:16:14;;;;;;;4.87;1.83;;;;;;;;;;5052421;28;20451;-48
2023/12/27 04:18:40;;;;;;;4.93;2.40;;;;;;;;;;5052459;28;20987;-48
2023/12/27 04:21:06;;;;;;;5.03;2.00;;;;;;;;;;5052460;28;20184;-48
2023/12/27 04:23:32;;;;;;;5.43;2.13;;;;;;;;;;5052318;28;20435;-48
2023/12/27 04:26:00;;;;;;;3.60;2.10;;;;;;;;;;5050964;28;20314;-47
2023/12/27 04:28:26;;;;;;;4.00;2.30;;;;;;;;;;5050669;28;20200;-47
2023/12/27 04:30:52;;;;;;;3.53;1.87;;;;;;;;;;5050378;28;20783;-47
2023/12/27 04:33:18;;;;;;;3.80;2.00;;;;;;;;;;5050607;28;20445;-48
2023/12/27 04:35:44;;;;;;;5.33;2.23;;;;;;;;;;5048723;28;20192;-47
2023/12/27 04:38:13;;;;;;;4.23;2.20;;;;;;;;;;5050329;28;20200;-48
2023/12/27 04:40:39;;;;;;;5.90;2.10;;;;;;;;;;5052109;28;20445;-47
2023/12/27 04:43:06;;;;;;;3.20;2.17;;;;;;;;;;5051973;28;20526;-47
2023/12/27 04:45:32;;;;;;;9.23;3.40;;;;;;;;;;5050226;28;20449;-48
2023/12/27 04:47:58;;;;;;;5.67;2.60;;;;;;;;;;5051507;28;20441;-47
2023/12/27 04:50:24;;;;;;;6.40;2.10;;;;;;;;;;5048233;28;20558;-49
2023/12/27 04:52:50;;;;;;;5.57;2.50;;;;;;;;;;5044866;28;20474;-48
2023/12/27 04:55:16;;;;;;;4.60;2.63;;;;;;;;;;5050329;28;20634;-48
2023/12/27 04:57:42;;;;;;;7.17;2.40;;;;;;;;;;5047927;28;20204;-48
2023/12/27 05:00:10;;;;;;;5.53;2.27;;;;;;;;;;5051708;28;20207;-48
2023/12/27 05:02:36;;;;;;;8.43;2.53;;;;;;;;;;5051776;28;20258;-48
2023/12/27 05:05:02;;;;;;;6.37;2.57;;;;;;;;;;5051690;28;20505;-47
2023/12/27 05:07:28;;;;;;;4.63;2.20;;;;;;;;;;5050082;28;20477;-48
2023/12/27 05:09:54;;;;;;;9.27;2.90;;;;;;;;;;5051738;28;20188;-48
2023/12/27 05:12:20;;;;;;;6.00;2.57;;;;;;;;;;5051190;28;20531;-48
2023/12/27 05:14:46;;;;;;;3.87;2.33;;;;;;;;;;5048289;28;20283;-47
2023/12/27 05:17:13;;;;;;;6.63;3.00;;;;;;;;;;5051400;28;20605;-47
2023/12/27 05:19:39;;;;;;;9.87;3.73;;;;;;;;;;5049624;28;20291;-48
2023/12/27 05:22:05;;;;;;;10.50;3.30;;;;;;;;;;5049834;28;20877;-48
2023/12/27 05:24:31;;;;;;;7.33;3.90;;;;;;;;;;5044556;28;20204;-47
2023/12/27 05:26:58;;;;;;;8.23;3.50;;;;;;;;;;5045928;28;20231;-48
2023/12/27 05:29:23;;;;;;;5.20;3.20;;;;;;;;;;5051621;28;20840;-48
2023/12/27 05:31:49;;;;;;;4.77;3.17;;;;;;;;;;5047796;28;20462;-47
2023/12/27 05:34:17;;;;;;;5.53;3.37;;;;;;;;;;5048019;28;20254;-47
2023/12/27 05:36:43;;;;;;;7.33;3.80;;;;;;;;;;5049669;28;20207;-48
2023/12/27 05:39:12;;;;;;;5.63;3.50;;;;;;;;;;5046114;28;20493;-48
2023/12/27 05:41:38;;;;;;;8.40;3.40;;;;;;;;;;5049755;28;20219;-48
2023/12/27 05:44:04;;;;;;;5.57;3.00;;;;;;;;;;5046027;28;20466;-48
2023/12/27 05:46:33;;;;;;;8.80;3.10;;;;;;;;;;5049435;28;20713;-48
2023/12/27 05:48:59;;;;;;;5.43;2.60;;;;;;;;;;5045967;28;20521;-48
2023/12/27 05:51:26;;;;;;;6.80;3.00;;;;;;;;;;5049262;28;20561;-48
2023/12/27 05:53:52;;;;;;;6.80;2.70;;;;;;;;;;5049520;28;20205;-48
2023/12/27 05:56:18;;;;;;;6.03;2.80;;;;;;;;;;5051484;28;20527;-48
2023/12/27 05:58:44;;;;;;;11.77;4.10;;;;;;;;;;5051504;28;20685;-48
2023/12/27 06:01:10;;;;;;;5.77;3.60;;;;;;;;;;5048930;28;20192;-48
2023/12/27 06:03:36;;;;;;;7.37;3.10;;;;;;;;;;5046122;28;20460;-47
2023/12/27 06:06:02;;;;;;;5.60;3.07;;;;;;;;;;5046073;28;21018;-48
2023/12/27 06:08:30;;;;;;;5.67;2.60;;;;;;;;;;5046076;28;20204;-48
2023/12/27 06:10:56;;;;;;;5.33;2.90;;;;;;;;;;5048992;28;20458;-48
2023/12/27 06:13:22;;;;;;;4.90;2.43;;;;;;;;;;5049259;28;20439;-48
2023/12/27 06:15:48;;;;;;;5.47;2.30;;;;;;;;;;5047640;28;20701;-48
2023/12/27 06:18:14;;;;;;;6.37;2.67;;;;;;;;;;5049199;28;20247;-48
2023/12/27 06:20:40;;;;;;;3.90;2.60;;;;;;;;;;5049244;28;20607;-48
2023/12/27 06:23:05;;;;;;;5.13;2.67;;;;;;;;;;5050944;28;20413;-48
2023/12/27 06:25:33;;;;;;;5.30;2.57;;;;;;;;;;5051105;28;20245;-48
2023/12/27 06:27:59;;;;;;;6.50;3.30;;;;;;;;;;5050957;28;20208;-48
2023/12/27 06:30:25;;;;;;;9.43;3.80;;;;;;;;;;5052699;28;20464;-48
2023/12/27 06:32:51;;;;;;;7.77;4.10;;;;;;;;;;5050906;28;20462;-48
2023/12/27 06:35:17;;;;;;;7.93;3.60;;;;;;;;;;5049024;28;20457;-48
2023/12/27 06:37:43;;;;;;;6.00;3.03;;;;;;;;;;5050938;28;20198;-48
2023/12/27 06:40:09;;;;;;;6.90;2.70;;;;;;;;;;5050895;28;20567;-48
2023/12/27 06:42:36;;;;;;;7.47;3.20;;;;;;;;;;5045613;28;20196;-49
2023/12/27 06:45:02;;;;;;;7.67;2.70;;;;;;;;;;5054317;28;20438;-48
2023/12/27 06:47:29;;;;;;;5.67;2.80;;;;;;;;;;5052398;28;20462;-48
2023/12/27 06:49:55;;;;;;;5.20;2.50;;;;;;;;;;5048662;28;20439;-48
2023/12/27 06:52:21;;;;;;;4.20;2.60;;;;;;;;;;5052181;28;20632;-48
2023/12/27 06:54:47;;;;;;;4.30;2.57;;;;;;;;;;5050567;28;20227;-48
2023/12/27 06:57:13;;;;;;;8.63;2.73;;;;;;;;;;5052247;28;20667;-48
2023/12/27 06:59:40;;;;;;;5.63;3.27;;;;;;;;;;5050366;28;20208;-48
2023/12/27 07:02:07;;;;;;;7.00;3.70;;;;;;;;;;5048668;28;20196;-48
2023/12/27 07:04:33;;;;;;;7.33;3.30;;;;;;;;;;5053533;28;20476;-48
2023/12/27 07:06:59;;;;;;;8.27;2.80;;;;;;;;;;5045115;28;20945;-48
2023/12/27 07:09:25;;;;;;;10.47;3.10;;;;;;;;;;5052167;28;20459;-47
2023/12/27 07:11:51;;;;;;;7.90;3.13;;;;;;;;;;5044985;28;20259;-48
2023/12/27 07:14:17;;;;;;;8.53;3.43;;;;;;;;;;5047795;28;20291;-48
2023/12/27 07:16:45;;;;;;;6.30;2.63;;;;;;;;;;5050038;28;21045;-49
2023/12/27 07:19:10;;;;;;;10.53;3.03;;;;;;;;;;5053420;28;20283;-48
2023/12/27 07:21:37;;;;;;;7.13;3.03;;;;;;;;;;5053544;28;20469;-48
2023/12/27 07:24:03;;;;;;;7.53;2.90;;;;;;;;;;5033537;28;20547;-49
2023/12/27 07:26:29;;;;;;;5.37;2.70;;;;;;;;;;5024747;28;20543;-49
2023/12/27 07:28:55;;;;;;;12.80;3.03;;;;;;;;;;5028972;28;20526;-48
2023/12/27 07:31:21;;;;;;;6.63;2.50;;;;;;;;;;5031398;28;20203;-49
2023/12/27 07:33:49;;;;;;;4.50;2.50;;;;;;;;;;5047853;28;20200;-48
2023/12/27 07:36:15;;;;;;;9.23;2.90;;;;;;;;;;5050924;28;21003;-47
2023/12/27 07:38:41;;;;;;;6.03;2.63;;;;;;;;;;5051018;28;20431;-48
2023/12/27 07:41:07;;;;;;;4.73;2.60;;;;;;;;;;5048997;28;20473;-48
2023/12/27 07:43:35;;;;;;;7.10;2.77;;;;;;;;;;5049424;28;20211;-48
2023/12/27 07:46:01;;;;;;;9.57;2.97;;;;;;;;;;5047692;28;20232;-48
2023/12/27 07:48:28;;;;;;;5.43;2.83;;;;;;;;;;5052925;28;20439;-48
2023/12/27 07:50:56;;;;;;;5.37;2.53;;;;;;;;;;5046007;28;20431;-49
2023/12/27 07:53:22;;;;;;;8.40;2.60;;;;;;;;;;5049025;28;20475;-48
2023/12/27 07:55:48;;;;;;;6.43;3.10;;;;;;;;;;5052877;28;20453;-48
2023/12/27 07:58:14;;;;;;;8.43;2.60;;;;;;;;;;5052884;28;20458;-49
2023/12/27 08:00:40;;;;;;;7.00;2.60;;;;;;;;;;5052896;28;20204;-48
2023/12/27 08:03:08;;;;;;;6.40;2.70;;;;;;;;;;5050836;28;20180;-48
2023/12/27 08:05:34;;;;;;;4.53;2.93;;;;;;;;;;5050867;28;20445;-48
2023/12/27 08:08:02;;;;;;;8.20;3.50;;;;;;;;;;5052649;28;20447;-48
2023/12/27 08:10:28;;;;;;;10.57;3.50;;;;;;;;;;5048945;28;20496;-48
2023/12/27 08:12:54;;;;;;;5.53;3.33;;;;;;;;;;5052491;28;20474;-49
2023/12/27 08:15:20;;;;;;;7.23;3.50;;;;;;;;;;5052395;28;20703;-49
2023/12/27 08:17:45;;;;;;;8.10;3.20;;;;;;;;;;5050884;28;20342;-49
2023/12/27 08:20:12;;;;;;;7.00;3.70;;;;;;;;;;5050615;28;20291;-49
2023/12/27 08:22:38;;;;;;;11.00;4.30;;;;;;;;;;5047232;28;20215;-49
2023/12/27 08:25:12;;;;;;;8.10;3.93;;;;;;;;;;5050387;28;20467;-50
2023/12/27 08:27:38;;;;;;;6.00;3.23;;;;;;;;;;5048851;28;20291;-49
2023/12/27 08:30:04;;;;;;;5.77;2.93;;;;;;;;;;5046585;28;21050;-49
2023/12/27 08:32:30;;;;;;;6.93;3.87;;;;;;;;;;5043546;28;20228;-49
2023/12/27 08:34:56;;;;;;;9.83;3.83;;;;;;;;;;5046558;28;20951;-49
2023/12/27 08:37:22;;;;;;;7.90;3.17;;;;;;;;;;5046327;28;20470;-49
2023/12/27 08:39:48;;;;;;;9.80;3.90;;;;;;;;;;5051928;28;20208;-48
2023/12/27 08:42:15;;;;;;;6.20;3.57;;;;;;;;;;5051744;28;20247;-49
2023/12/27 08:44:41;;;;;;;10.07;5.27;;;;;;;;;;5051879;28;20673;-48
2023/12/27 08:47:08;;;;;;;13.03;5.07;;;;;;;;;;5047368;28;20485;-50
2023/12/27 08:49:34;;;;;;;7.87;4.03;;;;;;;;;;5051881;28;20208;-49
2023/12/27 08:52:00;;;;;;;8.90;4.03;;;;;;;;;;5051987;28;20470;-49
2023/12/27 08:54:26;;;;;;;7.90;3.60;;;;;;;;;;5048414;28;20931;-48
2023/12/27 08:56:52;;;;;;;9.10;3.70;;;;;;;;;;5051860;28;20192;-49
2023/12/27 08:59:19;;;;;;;10.70;3.10;;;;;;;;;;5045953;28;20433;-48
2023/12/27 09:01:45;;;;;;;10.57;2.83;;;;;;;;;;5043287;28;20207;-50
2023/12/27 09:04:11;;;;;;;4.30;2.47;;;;;;;;;;5046290;28;20502;-49
2023/12/27 09:06:37;;;;;;;6.53;2.43;;;;;;;;;;5044543;28;20575;-51
2023/12/27 09:09:03;;;;;;;4.43;2.30;;;;;;;;;;5046210;28;20442;-50
2023/12/27 09:11:29;;;;;;;10.20;2.43;;;;;;;;;;5051391;28;20258;-51
2023/12/27 09:13:55;;;;;;;6.33;2.17;;;;;;;;;;5051562;28;20446;-51
2023/12/27 09:16:23;;;;;;;8.83;2.80;;;;;;;;;;5044545;28;20216;-51
2023/12/27 09:18:49;;;;;;;7.60;2.83;;;;;;;;;;5049991;28;20287;-51
2023/12/27 09:21:15;;;;;;;6.90;2.60;;;;;;;;;;5051456;28;20522;-52
2023/12/27 09:23:41;;;;;;;10.63;5.37;;;;;;;;;;5051425;28;20211;-52
2023/12/27 09:26:11;;;;;;;15.63;8.17;;;;;;;;;;5046095;28;20450;-54
2023/12/27 09:28:37;;;;;;;7.47;5.10;;;;;;;;;;5044498;28;20278;-53
2023/12/27 09:31:03;;;;;;;12.10;4.87;;;;;;;;;;5047904;28;20431;-51
2023/12/27 09:33:30;;;;;;;8.20;4.00;;;;;;;;;;5051477;28;21073;-52
2023/12/27 09:35:56;;;;;;;8.17;3.97;;;;;;;;;;5051551;28;20439;-51
2023/12/27 09:38:24;;;;;;;7.43;2.70;;;;;;;;;;5047718;28;20476;-52
2023/12/27 09:40:50;;;;;;;9.93;3.73;;;;;;;;;;5047671;28;20330;-52
2023/12/27 09:43:17;;;;;;;6.90;3.23;;;;;;;;;;5051647;28;20837;-52
2023/12/27 09:45:43;;;;;;;8.93;3.70;;;;;;;;;;5051551;28;20622;-52
2023/12/27 09:48:11;;;;;;;6.67;3.57;;;;;;;;;;5046178;28;20450;-51
2023/12/27 09:50:40;;;;;;;6.47;3.23;;;;;;;;;;5044199;28;20439;-50
2023/12/27 09:53:07;;;;;;;5.50;3.73;;;;;;;;;;5047572;28;20960;-52
2023/12/27 09:55:33;;;;;;;5.93;4.13;;;;;;;;;;5045762;28;20442;-52
2023/12/27 09:57:59;;;;;;;7.00;3.60;;;;;;;;;;5049092;28;20223;-52
2023/12/27 10:00:28;;;;;;;6.93;4.90;;;;;;;;;;5047966;28;21492;-51
2023/12/27 10:02:58;;;;;;;8.27;4.33;;;;;;;;;;5051259;28;20624;-51
2023/12/27 10:05:27;;;;;;;9.37;3.87;;;;;;;;;;5054157;28;20223;-51
2023/12/27 10:07:54;;;;;;;6.17;2.90;;;;;;;;;;5054829;28;20224;-51
2023/12/27 10:10:20;;;;;;;8.57;3.70;;;;;;;;;;5054665;28;20441;-52
2023/12/27 10:12:47;;;;;;;4.03;3.13;;;;;;;;;;5054751;28;20637;-51
2023/12/27 10:15:14;;;;;;;5.53;3.90;;;;;;;;;;5054527;28;20216;-51
2023/12/27 10:17:40;;;;;;;7.03;3.40;;;;;;;;;;5054431;28;20457;-51
2023/12/27 10:20:07;;;;;;;8.27;3.60;;;;;;;;;;5054433;28;20527;-52
2023/12/27 10:22:34;;;;;;;7.43;3.33;;;;;;;;;;5054237;28;20246;-51
2023/12/27 10:25:01;;;;;;;6.90;2.93;;;;;;;;;;5054668;28;20669;-51
2023/12/27 10:27:32;;;;;;;6.67;3.40;;;;;;;;;;5038105;28;20232;-51
2023/12/27 10:29:59;;;;;;;6.80;3.10;;;;;;;;;;5034128;28;20451;-51
2023/12/27 10:32:25;;;;;;;6.20;3.00;;;;;;;;;;5033731;28;20251;-51
2023/12/27 10:34:51;;;;;;;7.53;2.50;;;;;;;;;;5034288;28;20759;-51
2023/12/27 10:37:17;;;;;;;6.50;2.67;;;;;;;;;;5034197;28;20197;-51
2023/12/27 10:39:46;;;;;;;6.00;2.63;;;;;;;;;;5034311;28;20808;-51
2023/12/27 10:42:16;;;;;;;9.60;3.10;;;;;;;;;;5034486;28;20255;-51
2023/12/27 10:44:42;;;;;;;7.93;2.73;;;;;;;;;;5034446;28;20443;-52
2023/12/27 10:47:11;;;;;;;4.77;2.40;;;;;;;;;;5033886;28;20244;-50
2023/12/27 10:49:41;;;;;;;8.73;2.60;;;;;;;;;;5034138;28;20407;-51
2023/12/27 10:52:08;;;;;;;6.50;3.23;;;;;;;;;;5034059;28;20229;-51
2023/12/27 10:54:35;;;;;;;6.70;2.50;;;;;;;;;;5032155;28;20435;-51
2023/12/27 10:57:01;;;;;;;7.53;2.50;;;;;;;;;;5032259;28;21008;-51
2023/12/27 10:59:29;;;;;;;9.53;2.13;;;;;;;;;;5033804;28;20443;-50
2023/12/27 11:01:55;;;;;;;7.77;2.73;;;;;;;;;;5033694;28;20546;-51
2023/12/27 11:04:22;;;;;;;5.60;2.60;;;;;;;;;;5033652;28;20223;-50
2023/12/27 11:06:48;;;;;;;6.30;2.63;;;;;;;;;;5033691;28;20210;-50
2023/12/27 11:09:15;;;;;;;5.17;2.43;;;;;;;;;;5032908;28;20471;-50
2023/12/27 11:11:41;;;;;;;9.10;3.13;;;;;;;;;;5033632;28;20443;-51
2023/12/27 11:14:08;;;;;;;6.63;2.60;;;;;;;;;;5033601;28;20435;-54
2023/12/27 11:16:36;;;;;;;7.87;2.23;;;;;;;;;;5033502;28;20217;-51
2023/12/27 11:19:05;;;;;;;5.47;2.87;;;;;;;;;;5033583;28;20448;-50
2023/12/27 11:21:31;;;;;;;8.40;2.97;;;;;;;;;;5033570;28;20494;-49
2023/12/27 11:23:57;;;;;;;9.90;3.43;;;;;;;;;;5033788;28;20446;-50
2023/12/27 11:26:23;;;;;;;9.43;3.10;;;;;;;;;;5033442;28;20470;-49
2023/12/27 11:28:50;;;;;;;4.83;2.30;;;;;;;;;;5033540;28;20490;-49
2023/12/27 11:31:16;;;;;;;5.47;2.80;;;;;;;;;;5033556;28;20436;-50
2023/12/27 11:33:44;;;;;;;5.87;2.90;;;;;;;;;;5033472;28;20558;-49
2023/12/27 11:36:10;;;;;;;8.60;2.57;;;;;;;;;;5033433;28;20463;-49
2023/12/27 11:38:37;;;;;;;8.47;2.80;;;;;;;;;;5033320;28;20226;-50
2023/12/27 11:41:03;;;;;;;6.80;2.73;;;;;;;;;;5033302;28;20444;-50
2023/12/27 11:43:51;;;;;;;9.40;2.57;;;;;;;;;;5033255;28;20439;-49
2023/12/27 11:46:24;;;;;;;6.77;3.07;;;;;;;;;;5032770;28;20482;-49
2023/12/27 11:48:51;;;;;;;10.17;3.27;;;;;;;;;;5053534;28;20787;-49
2023/12/27 11:51:28;;;;;;;6.60;2.70;;;;;;;;;;5072595;28;20203;-49
2023/12/27 11:53:54;;;;;;;11.57;2.70;;;;;;;;;;5063736;28;20523;-49
2023/12/27 11:56:20;;;;;;;6.03;3.13;;;;;;;;;;5033306;28;20443;-50
2023/12/27 11:58:46;;;;;;;8.67;2.80;;;;;;;;;;5032895;28;20291;-50
2023/12/27 12:01:25;;;;;;;5.97;2.70;;;;;;;;;;5032680;28;20196;-50
2023/12/27 12:03:56;;;;;;;4.87;2.50;;;;;;;;;;5032696;28;20975;-50
2023/12/27 12:06:29;;;;;;;7.33;3.10;;;;;;;;;;5032651;28;20652;-50
2023/12/27 12:08:56;;;;;;;6.00;2.50;;;;;;;;;;5032882;28;20443;-50
2023/12/27 12:11:24;;;;;;;6.43;2.60;;;;;;;;;;5032536;28;20622;-50
2023/12/27 12:13:50;;;;;;;7.27;4.70;;;;;;;;;;5032484;28;20235;-50
2023/12/27 12:16:16;;;;;;;13.87;3.07;;;;;;;;;;5070385;28;20207;-51
2023/12/27 12:18:42;;;;;;;6.97;2.70;;;;;;;;;;5072093;28;20272;-49
2023/12/27 12:21:10;;;;;;;6.03;3.10;;;;;;;;;;5072291;28;20198;-49
2023/12/27 12:23:36;;;;;;;8.80;2.93;;;;;;;;;;5072236;28;20640;-50
2023/12/27 12:26:03;;;;;;;12.07;3.07;;;;;;;;;;5072220;28;20622;-50
2023/12/27 12:28:29;;;;;;;6.90;2.60;;;;;;;;;;5071839;28;20199;-50
2023/12/27 12:30:55;;;;;;;6.57;2.87;;;;;;;;;;5072073;28;20679;-50
2023/12/27 12:33:21;;;;;;;7.03;2.73;;;;;;;;;;5071772;28;20223;-50
2023/12/27 12:35:47;;;;;;;8.13;3.17;;;;;;;;;;5072014;28;20196;-50
2023/12/27 12:38:15;;;;;;;12.40;7.60;;;;;;;;;;5071686;28;20199;-50
2023/12/27 12:40:41;;;;;;;6.50;3.07;;;;;;;;;;5071824;28;20235;-49
2023/12/27 12:43:07;;;;;;;8.10;2.90;;;;;;;;;;5072092;28;20248;-50
2023/12/27 12:45:35;;;;;;;7.70;2.60;;;;;;;;;;5071693;28;20539;-49
2023/12/27 12:48:01;;;;;;;7.27;2.90;;;;;;;;;;5071682;28;20435;-49
2023/12/27 12:50:28;;;;;;;5.93;3.10;;;;;;;;;;5071452;28;20442;-49
2023/12/27 12:52:54;;;;;;;7.53;3.43;;;;;;;;;;5071889;28;20473;-49
2023/12/27 12:55:28;;;;;;;13.43;3.07;;;;;;;;;;5071765;28;20571;-49
2023/12/27 12:57:55;;;;;;;9.30;3.97;;;;;;;;;;5071931;28;20211;-49
2023/12/27 13:00:21;;;;;;;7.53;3.70;;;;;;;;;;5072093;28;20438;-49
2023/12/27 13:02:48;;;;;;;9.30;3.50;;;;;;;;;;5064248;28;20496;-49
2023/12/27 13:05:14;;;;;;;7.93;3.67;;;;;;;;;;5051709;28;20492;-49
2023/12/27 13:07:42;;;;;;;11.17;4.53;;;;;;;;;;5051451;28;20858;-49
2023/12/27 13:10:12;;;;;;;12.67;4.90;;;;;;;;;;5070025;28;20200;-49
2023/12/27 13:12:41;;;;;;;9.20;3.50;;;;;;;;;;5071422;28;20838;-49
2023/12/27 13:15:07;;;;;;;9.87;4.17;;;;;;;;;;5071497;28;20712;-49
2023/12/27 13:17:33;;;;;;;9.43;4.87;;;;;;;;;;5071275;28;20693;-51
2023/12/27 13:19:59;;;;;;;12.23;6.73;;;;;;;;;;5063961;28;20447;-49
2023/12/27 13:22:25;;;;;;;8.60;4.87;;;;;;;;;;5051419;28;20265;-50
2023/12/27 13:24:51;;;;;;;12.67;5.50;;;;;;;;;;5051664;28;20666;-50
2023/12/27 13:27:17;;;;;;;10.57;4.43;;;;;;;;;;5051475;28;20196;-49
2023/12/27 13:29:45;;;;;;;10.37;4.80;;;;;;;;;;5051457;28;20200;-50
2023/12/27 13:32:11;;;;;;;9.17;4.63;;;;;;;;;;5050805;28;20847;-50
2023/12/27 13:34:37;;;;;;;10.10;5.27;;;;;;;;;;5054529;28;20435;-50
2023/12/27 13:37:03;;;;;;;7.97;4.53;;;;;;;;;;5054338;28;20874;-50
2023/12/27 13:39:29;;;;;;;10.00;4.70;;;;;;;;;;5069797;28;20325;-50
2023/12/27 13:41:55;;;;;;;9.67;4.83;;;;;;;;;;5074866;28;20706;-49
2023/12/27 13:44:21;;;;;;;10.40;4.83;;;;;;;;;;5073807;28;20241;-48
2023/12/27 13:46:49;;;;;;;13.47;4.97;;;;;;;;;;5073790;28;20469;-49
2023/12/27 13:49:15;;;;;;;9.87;5.13;;;;;;;;;;5075069;28;20572;-50
2023/12/27 13:51:41;;;;;;;13.63;5.67;;;;;;;;;;5075098;28;20441;-49
2023/12/27 13:54:07;;;;;;;10.00;5.40;;;;;;;;;;5066324;28;20210;-49
2023/12/27 13:56:35;;;;;;;10.03;5.50;;;;;;;;;;5075000;28;20203;-48
2023/12/27 13:59:02;;;;;;;10.90;5.60;;;;;;;;;;5075142;28;20465;-48
2023/12/27 14:01:29;;;;;;;9.67;5.83;;;;;;;;;;5074480;28;20225;-49
2023/12/27 14:03:56;;;;;;;14.00;6.03;;;;;;;;;;5074656;28;20495;-48
2023/12/27 14:06:22;;;;;;;12.83;6.20;;;;;;;;;;5075040;28;20499;-49
2023/12/27 14:08:49;;;;;;;17.03;6.27;;;;;;;;;;5061020;28;20442;-48
2023/12/27 14:11:16;;;;;;;10.10;6.30;;;;;;;;;;5054713;28;20224;-48
2023/12/27 14:13:43;;;;;;;9.20;6.07;;;;;;;;;;5063862;28;20504;-48
2023/12/27 14:16:09;;;;;;;24.73;10.53;;;;;;;;;;5074488;28;20234;-51
2023/12/27 14:18:35;;;;;;;15.47;7.13;;;;;;;;;;5074537;28;20477;-50
2023/12/27 14:21:03;;;;;;;10.20;6.27;;;;;;;;;;5073121;28;20257;-51
2023/12/27 14:23:29;;;;;;;7.83;5.87;;;;;;;;;;5065129;28;20204;-50
2023/12/27 14:25:55;;;;;;;13.63;7.07;;;;;;;;;;5054532;28;20990;-50
2023/12/27 14:28:21;;;;;;;11.17;6.53;;;;;;;;;;5054456;28;20199;-51
2023/12/27 14:30:47;;;;;;;14.50;7.30;;;;;;;;;;5054411;28;20433;-49
2023/12/27 14:33:13;;;;;;;15.30;6.97;;;;;;;;;;5054291;28;20310;-50
2023/12/27 14:35:39;;;;;;;10.77;7.27;;;;;;;;;;5054340;28;20513;-50
2023/12/27 14:38:07;;;;;;;14.33;7.70;;;;;;;;;;5054480;28;20192;-50